Time;durP1;ratioP1;P1;durP2;ratioP2;P2;SDS_P1;SDS_P2;PMS_P1;PMS_P2;Temp;Humidity;BMP_temperature;BMP_pressure;BME280_temperature;BME280_humidity;BME280_pressure;Samples;Min_cycle;Max_cycle;Signal;HPM_P1;HPM_P2
2024/03/09 00:00:21;;;;;;;17.58;13.27;;;1.50;99.90;;;;;;4967737;28;20745;-62
2024/03/09 00:02:50;;;;;;;16.67;13.27;;;1.50;99.90;;;;;;4963380;28;20284;-62
2024/03/09 00:05:17;;;;;;;15.90;12.60;;;1.50;99.90;;;;;;4972321;28;20213;-62
2024/03/09 00:07:44;;;;;;;15.45;12.20;;;1.40;99.90;;;;;;4973411;28;20303;-61
2024/03/09 00:10:12;;;;;;;16.35;11.48;;;1.40;99.90;;;;;;4972679;28;20209;-62
2024/03/09 00:12:40;;;;;;;16.58;13.77;;;1.40;99.90;;;;;;4973724;28;20201;-62
2024/03/09 00:15:09;;;;;;;17.80;12.80;;;1.40;99.90;;;;;;4973938;28;20659;-62
2024/03/09 00:17:39;;;;;;;24.00;13.07;;;1.40;99.90;;;;;;4974139;28;20213;-62
2024/03/09 00:20:09;;;;;;;16.65;13.52;;;1.40;99.90;;;;;;4973998;28;20209;-63
2024/03/09 00:22:36;;;;;;;16.67;11.32;;;1.30;99.90;;;;;;4973569;28;20697;-62
2024/03/09 00:25:04;;;;;;;13.98;11.45;;;1.30;99.90;;;;;;4973546;28;20236;-61
2024/03/09 00:27:31;;;;;;;14.88;11.43;;;1.30;99.90;;;;;;4974065;28;20216;-62
2024/03/09 00:29:59;;;;;;;19.27;12.77;;;1.30;99.90;;;;;;4973561;28;20216;-62
2024/03/09 00:32:26;;;;;;;20.58;12.90;;;1.30;99.90;;;;;;4973835;28;20213;-62
2024/03/09 00:34:53;;;;;;;19.27;12.77;;;1.30;99.90;;;;;;4973556;28;20228;-62
2024/03/09 00:37:20;;;;;;;18.42;12.50;;;1.30;99.90;;;;;;4973878;28;20223;-62
2024/03/09 00:39:47;;;;;;;17.55;12.93;;;1.30;99.90;;;;;;4973505;28;20212;-62
2024/03/09 00:42:14;;;;;;;19.65;13.75;;;1.30;99.90;;;;;;4973529;28;20209;-62
2024/03/09 00:44:42;;;;;;;24.60;13.90;;;1.20;99.90;;;;;;4973348;28;20726;-62
2024/03/09 00:47:10;;;;;;;16.75;13.00;;;1.20;99.90;;;;;;4973519;28;20240;-62
2024/03/09 00:49:39;;;;;;;16.98;12.13;;;1.20;99.90;;;;;;4973092;28;20213;-64
2024/03/09 00:52:06;;;;;;;18.80;14.10;;;1.20;99.90;;;;;;4973557;28;20212;-62
2024/03/09 00:54:35;;;;;;;15.25;11.88;;;1.10;99.90;;;;;;4973202;28;20237;-62
2024/03/09 00:57:03;;;;;;;19.25;13.40;;;1.10;99.90;;;;;;4973332;28;20233;-62
2024/03/09 00:59:30;;;;;;;17.42;12.32;;;1.20;99.90;;;;;;4973153;28;20216;-62
2024/03/09 01:02:00;;;;;;;21.75;13.57;;;1.10;99.90;;;;;;4972602;28;20216;-62
2024/03/09 01:04:28;;;;;;;19.13;12.63;;;1.10;99.90;;;;;;4973116;28;20665;-62
2024/03/09 01:06:57;;;;;;;15.90;13.35;;;1.10;99.90;;;;;;4973285;28;20221;-62
2024/03/09 01:09:25;;;;;;;18.73;13.93;;;1.10;99.90;;;;;;4973119;28;20299;-62
2024/03/09 01:11:52;;;;;;;15.45;11.93;;;1.00;99.90;;;;;;4972866;28;20219;-63
2024/03/09 01:14:20;;;;;;;13.50;11.20;;;1.00;99.90;;;;;;4972947;28;20601;-62
2024/03/09 01:16:46;;;;;;;21.55;13.13;;;1.00;99.90;;;;;;4972839;28;20247;-62
2024/03/09 01:19:14;;;;;;;18.95;11.80;;;0.90;99.90;;;;;;4973137;28;20304;-63
2024/03/09 01:21:42;;;;;;;19.00;12.82;;;0.90;99.90;;;;;;4972751;28;20296;-62
2024/03/09 01:24:09;;;;;;;16.08;11.18;;;0.90;99.90;;;;;;4972789;28;20243;-62
2024/03/09 01:26:37;;;;;;;16.80;12.07;;;0.90;99.90;;;;;;4972772;28;20225;-62
2024/03/09 01:29:04;;;;;;;14.68;11.88;;;0.90;99.90;;;;;;4972812;28;20271;-62
2024/03/09 01:31:32;;;;;;;13.35;11.00;;;0.80;99.90;;;;;;4975948;28;20742;-62
2024/03/09 01:33:59;;;;;;;18.08;11.32;;;0.80;99.90;;;;;;4983822;28;20223;-61
2024/03/09 01:36:27;;;;;;;17.38;14.27;;;0.80;99.90;;;;;;4984213;28;20209;-61
2024/03/09 01:38:55;;;;;;;20.92;14.32;;;0.80;99.90;;;;;;4992079;28;20250;-62
2024/03/09 01:41:23;;;;;;;17.25;12.80;;;0.80;99.90;;;;;;4982726;28;20204;-62
2024/03/09 01:43:49;;;;;;;16.35;11.32;;;0.70;99.90;;;;;;4983353;28;20228;-62
2024/03/09 01:46:20;;;;;;;21.77;12.63;;;0.70;99.90;;;;;;4991753;28;20218;-62
2024/03/09 01:48:49;;;;;;;20.60;13.02;;;0.70;99.90;;;;;;4990608;28;20208;-62
2024/03/09 01:51:17;;;;;;;13.93;10.88;;;0.70;99.90;;;;;;4980843;28;20208;-62
2024/03/09 01:53:46;;;;;;;16.75;11.77;;;0.60;99.90;;;;;;4982902;28;20315;-62
2024/03/09 01:56:14;;;;;;;19.60;12.15;;;0.60;99.90;;;;;;4981823;28;20209;-62
2024/03/09 01:58:43;;;;;;;17.35;12.80;;;0.60;99.90;;;;;;4991969;28;20734;-62
2024/03/09 02:01:22;;;;;;;17.42;13.05;;;0.60;99.90;;;;;;4991525;28;20649;-62
2024/03/09 02:03:54;;;;;;;18.52;11.93;;;0.50;99.90;;;;;;4991623;28;20239;-62
2024/03/09 02:06:23;;;;;;;16.55;10.65;;;0.50;99.90;;;;;;4991683;28;20216;-62
2024/03/09 02:08:51;;;;;;;12.98;11.35;;;0.50;99.90;;;;;;4991333;28;20236;-62
2024/03/09 02:11:21;;;;;;;18.95;12.63;;;0.50;99.90;;;;;;4991431;28;20218;-63
2024/03/09 02:13:48;;;;;;;16.55;11.73;;;0.50;99.90;;;;;;4991156;28;20235;-62
2024/03/09 02:16:15;;;;;;;16.70;13.98;;;0.50;99.90;;;;;;4990644;28;20705;-62
2024/03/09 02:18:45;;;;;;;18.55;12.73;;;0.40;99.90;;;;;;4991519;28;20212;-62
2024/03/09 02:21:12;;;;;;;17.40;12.65;;;0.40;99.90;;;;;;4991154;28;20563;-62
2024/03/09 02:23:40;;;;;;;18.02;13.50;;;0.40;99.90;;;;;;4985439;28;20235;-62
2024/03/09 02:26:09;;;;;;;19.98;12.40;;;0.40;99.90;;;;;;4982950;28;20215;-62
2024/03/09 02:28:37;;;;;;;20.67;13.45;;;0.40;99.90;;;;;;4991546;28;20212;-64
2024/03/09 02:31:05;;;;;;;17.10;13.27;;;0.30;99.90;;;;;;4991088;28;20303;-62
2024/03/09 02:33:33;;;;;;;15.45;11.32;;;0.30;99.90;;;;;;4991270;28;20267;-63
2024/03/09 02:36:00;;;;;;;17.40;12.95;;;0.30;99.90;;;;;;4991356;28;20223;-62
2024/03/09 02:38:27;;;;;;;17.40;12.57;;;0.30;99.90;;;;;;4991411;28;20243;-62
2024/03/09 02:40:54;;;;;;;14.82;11.95;;;0.30;99.90;;;;;;4984930;28;20205;-63
2024/03/09 02:43:24;;;;;;;20.67;13.15;;;0.30;99.90;;;;;;4981640;28;20231;-62
2024/03/09 02:45:51;;;;;;;16.75;11.10;;;0.20;99.90;;;;;;4986401;28;20212;-62
2024/03/09 02:48:17;;;;;;;17.13;12.30;;;0.20;99.90;;;;;;4994439;28;20205;-62
2024/03/09 02:50:44;;;;;;;16.55;13.15;;;0.20;99.90;;;;;;4989364;28;20308;-61
2024/03/09 02:53:11;;;;;;;20.38;11.45;;;0.20;99.90;;;;;;4986989;28;20272;-62
2024/03/09 02:55:38;;;;;;;17.98;11.57;;;0.20;99.90;;;;;;4975500;28;20220;-62
2024/03/09 02:58:05;;;;;;;13.20;10.75;;;0.20;99.90;;;;;;4975513;28;20296;-63
2024/03/09 03:00:33;;;;;;;16.40;10.77;;;0.20;99.90;;;;;;4975212;28;20292;-62
2024/03/09 03:05:45;;;;;;;17.58;13.25;;;0.20;99.90;;;;;;4975399;28;20260;-62
2024/03/09 03:08:13;;;;;;;12.32;10.60;;;0.10;99.90;;;;;;4975418;28;20568;-62
2024/03/09 03:10:40;;;;;;;19.10;12.88;;;0.10;99.90;;;;;;4974965;28;20212;-62
2024/03/09 03:13:08;;;;;;;17.85;11.38;;;0.10;99.90;;;;;;4975098;28;20241;-62
2024/03/09 03:15:37;;;;;;;20.40;13.20;;;0.10;99.90;;;;;;4975169;28;20260;-62
2024/03/09 03:18:07;;;;;;;18.38;11.25;;;0.10;99.90;;;;;;4975160;28;20213;-62
2024/03/09 03:20:34;;;;;;;19.80;11.77;;;0.10;99.90;;;;;;4974895;28;20264;-62
2024/03/09 03:23:03;;;;;;;21.75;12.32;;;0.10;99.90;;;;;;4975020;28;20300;-62
2024/03/09 03:25:30;;;;;;;18.20;11.27;;;0.10;99.90;;;;;;4974774;28;20231;-62
2024/03/09 03:27:57;;;;;;;16.00;12.23;;;0.10;99.90;;;;;;4974726;28;20686;-62
2024/03/09 03:30:25;;;;;;;14.32;10.75;;;0.10;99.90;;;;;;4974638;28;20679;-62
2024/03/09 03:32:54;;;;;;;16.58;12.93;;;0.10;99.90;;;;;;4974643;28;20743;-62
2024/03/09 03:35:24;;;;;;;14.82;11.60;;;0.10;99.90;;;;;;4974819;28;20209;-63
2024/03/09 03:37:53;;;;;;;17.88;12.23;;;0.10;99.90;;;;;;4974627;28;20295;-63
2024/03/09 03:40:23;;;;;;;14.77;11.60;;;0.10;99.90;;;;;;4974470;28;20299;-62
2024/03/09 03:42:50;;;;;;;15.57;11.95;;;0.10;99.90;;;;;;4975120;28;20296;-62
2024/03/09 03:45:17;;;;;;;12.95;9.82;;;0.10;99.90;;;;;;4974751;28;20226;-63
2024/03/09 03:47:44;;;;;;;15.52;11.35;;;0.10;99.90;;;;;;4974728;28;20316;-62
2024/03/09 03:50:13;;;;;;;12.35;10.77;;;0.10;99.90;;;;;;4974457;28;20213;-62
2024/03/09 03:52:40;;;;;;;15.45;13.95;;;0.10;99.90;;;;;;4974509;28;20213;-62
2024/03/09 03:55:11;;;;;;;14.98;12.02;;;0.10;99.90;;;;;;4974097;28;20244;-62
2024/03/09 03:57:40;;;;;;;16.08;11.00;;;0.10;99.90;;;;;;4988556;28;20224;-62
2024/03/09 04:00:11;;;;;;;17.30;13.40;;;0.00;99.90;;;;;;4993163;28;20291;-62
2024/03/09 04:02:41;;;;;;;12.55;11.00;;;0.00;99.90;;;;;;4993966;28;20744;-62
2024/03/09 04:05:08;;;;;;;18.40;13.18;;;0.10;99.90;;;;;;4993548;28;20587;-62
2024/03/09 04:07:39;;;;;;;14.63;11.48;;;0.00;99.90;;;;;;4993409;28;20675;-62
2024/03/09 04:10:13;;;;;;;17.40;11.98;;;0.00;99.90;;;;;;4993344;28;20216;-62
2024/03/09 04:12:40;;;;;;;16.13;12.80;;;0.10;99.90;;;;;;4978518;28;20302;-62
2024/03/09 04:15:08;;;;;;;15.95;12.07;;;0.10;99.90;;;;;;4974011;28;20863;-62
2024/03/09 04:17:35;;;;;;;17.73;13.77;;;0.10;99.90;;;;;;4974112;28;20213;-62
2024/03/09 04:20:04;;;;;;;16.67;9.60;;;0.10;99.90;;;;;;4973706;28;20213;-62
2024/03/09 04:22:32;;;;;;;17.98;11.48;;;0.10;99.90;;;;;;4974116;28;20247;-62
2024/03/09 04:25:01;;;;;;;18.67;14.65;;;0.10;99.90;;;;;;4972783;28;20233;-62
2024/03/09 04:27:28;;;;;;;14.60;10.80;;;0.10;99.90;;;;;;4973726;28;20216;-63
2024/03/09 04:29:55;;;;;;;14.38;10.18;;;0.10;99.90;;;;;;4980165;28;20588;-62
2024/03/09 04:32:22;;;;;;;11.40;9.05;;;0.10;99.90;;;;;;4993319;28;20204;-62
2024/03/09 04:34:51;;;;;;;20.60;11.45;;;0.10;99.90;;;;;;4993181;28;20228;-62
2024/03/09 04:37:25;;;;;;;18.27;11.82;;;0.10;99.90;;;;;;4993077;28;20215;-62
2024/03/09 04:39:52;;;;;;;13.40;11.30;;;0.20;99.90;;;;;;4992683;28;20297;-62
2024/03/09 04:42:20;;;;;;;12.52;11.15;;;0.20;99.90;;;;;;4993051;28;20299;-62
2024/03/09 04:44:47;;;;;;;19.33;11.30;;;0.20;99.90;;;;;;4992838;28;20238;-62
2024/03/09 04:47:14;;;;;;;14.80;11.95;;;0.20;99.90;;;;;;4993020;28;20232;-62
2024/03/09 04:49:42;;;;;;;17.25;11.18;;;0.20;99.90;;;;;;4992665;28;20594;-62
2024/03/09 04:52:12;;;;;;;15.55;11.93;;;0.20;99.90;;;;;;4992865;28;20247;-62
2024/03/09 04:54:39;;;;;;;17.40;11.45;;;0.20;99.90;;;;;;4992632;28;20240;-62
2024/03/09 04:57:08;;;;;;;16.77;11.18;;;0.30;99.90;;;;;;4992661;28;20214;-62
2024/03/09 04:59:39;;;;;;;19.33;12.70;;;0.30;99.90;;;;;;4992493;28;20219;-62
2024/03/09 05:02:06;;;;;;;15.40;11.15;;;0.30;99.90;;;;;;4992658;28;20208;-62
2024/03/09 05:04:33;;;;;;;15.85;12.10;;;0.40;99.90;;;;;;4992366;28;20236;-62
2024/03/09 05:07:03;;;;;;;14.05;11.57;;;0.40;99.90;;;;;;4992488;28;20220;-62
2024/03/09 05:09:30;;;;;;;14.23;11.20;;;0.40;99.90;;;;;;4991951;28;20208;-63
2024/03/09 05:11:57;;;;;;;18.90;11.25;;;0.40;99.90;;;;;;4981806;28;20220;-62
2024/03/09 05:14:24;;;;;;;16.10;12.60;;;0.40;99.90;;;;;;4983817;28;20217;-62
2024/03/09 05:16:52;;;;;;;21.50;12.98;;;0.40;99.90;;;;;;4992354;28;20219;-62
2024/03/09 05:19:19;;;;;;;18.30;11.75;;;0.40;99.90;;;;;;4992223;28;20299;-62
2024/03/09 05:21:46;;;;;;;15.68;12.18;;;0.40;99.90;;;;;;4991912;28;20304;-62
2024/03/09 05:24:13;;;;;;;14.07;10.77;;;0.40;99.90;;;;;;4990716;28;20229;-62
2024/03/09 05:26:42;;;;;;;14.85;12.05;;;0.40;99.90;;;;;;4984093;28;20287;-62
2024/03/09 05:29:11;;;;;;;15.27;10.68;;;0.40;99.90;;;;;;4990040;28;20590;-62
2024/03/09 05:31:39;;;;;;;15.13;12.35;;;0.40;99.90;;;;;;4983581;28;20208;-62
2024/03/09 05:34:08;;;;;;;15.05;12.05;;;0.40;99.90;;;;;;4992170;28;20657;-62
2024/03/09 05:36:35;;;;;;;16.05;13.48;;;0.40;99.90;;;;;;4992132;28;20302;-62
2024/03/09 05:39:05;;;;;;;17.63;11.75;;;0.40;99.90;;;;;;4990054;28;20212;-62
2024/03/09 05:41:32;;;;;;;17.65;12.13;;;0.40;99.90;;;;;;4983889;28;20212;-62
2024/03/09 05:43:59;;;;;;;19.15;12.20;;;0.40;99.90;;;;;;4991917;28;20234;-62
2024/03/09 05:46:27;;;;;;;21.85;12.55;;;0.40;99.90;;;;;;4991740;28;20278;-62
2024/03/09 05:48:55;;;;;;;18.25;12.10;;;0.40;99.90;;;;;;4992093;28;20230;-62
2024/03/09 05:51:23;;;;;;;14.60;11.52;;;0.40;99.90;;;;;;4991656;28;20211;-62
2024/03/09 05:53:50;;;;;;;13.25;10.98;;;0.40;99.90;;;;;;4991682;28;20264;-62
2024/03/09 05:56:17;;;;;;;16.52;11.10;;;0.40;99.90;;;;;;4991842;28;20287;-62
2024/03/09 05:58:44;;;;;;;16.17;11.20;;;0.40;99.90;;;;;;4991580;28;20205;-62
2024/03/09 06:01:12;;;;;;;14.48;10.20;;;0.40;99.90;;;;;;4991305;28;20209;-62
2024/03/09 06:03:41;;;;;;;12.57;10.38;;;0.40;99.90;;;;;;4991404;28;20233;-62
2024/03/09 06:06:08;;;;;;;18.90;12.38;;;0.40;99.90;;;;;;4991133;28;20224;-62
2024/03/09 06:08:38;;;;;;;15.70;11.55;;;0.40;99.90;;;;;;4991494;28;20204;-62
2024/03/09 06:11:06;;;;;;;14.02;10.60;;;0.40;99.90;;;;;;4991321;28;20208;-63
2024/03/09 06:13:33;;;;;;;13.98;11.27;;;0.30;99.90;;;;;;4991397;28;20228;-63
2024/03/09 06:16:00;;;;;;;17.15;13.73;;;0.30;99.90;;;;;;4991699;28;20201;-62
2024/03/09 06:18:27;;;;;;;18.05;12.15;;;0.30;99.90;;;;;;4991652;28;20215;-62
2024/03/09 06:20:55;;;;;;;15.15;12.20;;;0.30;99.90;;;;;;4991394;28;20235;-62
2024/03/09 06:23:23;;;;;;;19.95;11.40;;;0.30;99.90;;;;;;4995070;28;20235;-62
2024/03/09 06:25:53;;;;;;;20.98;12.90;;;0.30;99.90;;;;;;4995196;28;20230;-63
2024/03/09 06:28:20;;;;;;;18.52;11.55;;;0.30;99.90;;;;;;4995434;28;20208;-62
2024/03/09 06:30:47;;;;;;;14.23;10.50;;;0.30;99.90;;;;;;4995371;28;20208;-62
2024/03/09 06:33:17;;;;;;;14.05;11.05;;;0.30;99.90;;;;;;4995351;28;20778;-62
2024/03/09 06:35:44;;;;;;;18.08;13.20;;;0.30;99.90;;;;;;4995170;28;20706;-62
2024/03/09 06:38:13;;;;;;;17.33;12.45;;;0.30;99.90;;;;;;4995266;28;20212;-62
2024/03/09 06:40:41;;;;;;;20.52;13.75;;;0.40;99.90;;;;;;4994650;28;20228;-62
2024/03/09 06:43:10;;;;;;;18.55;13.63;;;0.40;99.90;;;;;;4987744;28;20713;-62
2024/03/09 06:45:38;;;;;;;16.80;13.27;;;0.40;99.90;;;;;;4986874;28;20602;-62
2024/03/09 06:48:06;;;;;;;13.15;10.75;;;0.40;99.90;;;;;;4995121;28;20218;-62
2024/03/09 06:50:35;;;;;;;20.92;11.32;;;0.50;99.90;;;;;;4994767;28;20227;-62
2024/03/09 06:53:02;;;;;;;20.48;13.60;;;0.50;99.90;;;;;;4994596;28;20236;-62
2024/03/09 06:55:30;;;;;;;17.02;12.38;;;0.60;99.90;;;;;;4993357;28;20215;-62
2024/03/09 06:58:01;;;;;;;16.50;11.70;;;0.60;99.90;;;;;;4993552;28;20208;-62
2024/03/09 07:00:30;;;;;;;18.98;13.75;;;0.70;99.90;;;;;;4981349;28;20231;-62
2024/03/09 07:02:58;;;;;;;23.08;13.48;;;0.70;99.90;;;;;;4973722;28;20292;-62
2024/03/09 07:05:27;;;;;;;21.83;13.07;;;0.80;99.90;;;;;;4981819;28;20228;-62
2024/03/09 07:07:55;;;;;;;24.02;14.90;;;0.90;99.90;;;;;;4981240;28;20669;-62
2024/03/09 07:10:22;;;;;;;17.83;13.15;;;0.90;99.90;;;;;;4973164;28;20210;-62
2024/03/09 07:12:49;;;;;;;22.17;14.15;;;1.00;99.90;;;;;;4973746;28;20301;-62
2024/03/09 07:15:17;;;;;;;17.55;14.95;;;1.10;99.90;;;;;;4977776;28;20201;-62
2024/03/09 07:17:46;;;;;;;21.15;14.48;;;1.20;99.90;;;;;;4984067;28;20300;-61
2024/03/09 07:20:16;;;;;;;25.52;14.90;;;1.30;99.90;;;;;;4978107;28;20208;-62
2024/03/09 07:22:44;;;;;;;19.95;15.55;;;1.30;99.90;;;;;;4973238;28;20213;-62
2024/03/09 07:25:13;;;;;;;20.63;15.05;;;1.40;99.90;;;;;;4972698;28;20721;-62
2024/03/09 07:27:41;;;;;;;17.33;12.43;;;1.50;99.90;;;;;;4972766;28;20198;-63
2024/03/09 07:30:09;;;;;;;19.17;14.38;;;1.60;99.90;;;;;;4975150;28;20205;-62
2024/03/09 07:32:37;;;;;;;15.82;13.32;;;1.70;99.90;;;;;;4972933;28;20598;-62
2024/03/09 07:35:14;;;;;;;19.85;12.57;;;1.90;99.90;;;;;;4973452;28;20256;-62
2024/03/09 07:37:42;;;;;;;21.80;14.07;;;2.00;99.90;;;;;;4973471;28;20213;-62
2024/03/09 07:40:10;;;;;;;18.08;13.95;;;2.10;99.90;;;;;;4973061;28;20244;-62
2024/03/09 07:42:38;;;;;;;30.70;20.10;;;2.20;99.90;;;;;;4973205;28;20220;-62
2024/03/09 07:45:10;;;;;;;24.85;16.60;;;2.30;99.90;;;;;;4972938;28;20269;-63
2024/03/09 07:47:38;;;;;;;19.80;15.45;;;2.50;99.90;;;;;;4973391;28;20212;-62
2024/03/09 07:50:13;;;;;;;18.60;14.32;;;2.70;99.90;;;;;;4972755;28;20213;-63
2024/03/09 07:52:42;;;;;;;21.10;15.60;;;2.80;99.90;;;;;;4973113;28;20657;-62
2024/03/09 07:55:09;;;;;;;17.53;15.20;;;3.00;99.90;;;;;;4933097;28;1181959;-62
2024/03/09 07:57:37;;;;;;;18.58;14.60;;;3.20;99.90;;;;;;4974017;28;20216;-62
2024/03/09 08:00:09;;;;;;;19.40;13.38;;;3.30;99.90;;;;;;4973690;28;20699;-62
2024/03/09 08:02:37;;;;;;;17.27;13.38;;;3.50;99.90;;;;;;4974214;28;20205;-62
2024/03/09 08:05:08;;;;;;;16.38;12.35;;;3.60;99.90;;;;;;4973966;28;20261;-62
2024/03/09 08:07:36;;;;;;;17.70;13.38;;;3.70;99.90;;;;;;4973910;28;20241;-62
2024/03/09 08:10:06;;;;;;;17.80;12.68;;;3.90;99.90;;;;;;4973354;28;20249;-62
2024/03/09 08:12:33;;;;;;;13.80;12.27;;;4.00;99.90;;;;;;4974094;28;20247;-62
2024/03/09 08:15:00;;;;;;;16.98;12.55;;;4.10;99.90;;;;;;4971247;28;20392;-62
2024/03/09 08:17:27;;;;;;;17.50;14.48;;;4.20;99.90;;;;;;4971688;28;20216;-62
2024/03/09 08:19:54;;;;;;;19.63;12.70;;;4.30;99.90;;;;;;4972748;28;20244;-62
2024/03/09 08:22:22;;;;;;;16.15;13.18;;;4.40;99.90;;;;;;4977121;28;20230;-62
2024/03/09 08:24:51;;;;;;;18.52;13.80;;;4.40;99.90;;;;;;4973268;28;20661;-62
2024/03/09 08:27:18;;;;;;;20.50;13.93;;;4.50;99.90;;;;;;4979481;28;20232;-62
2024/03/09 08:29:45;;;;;;;16.27;13.35;;;4.50;99.90;;;;;;4972901;28;20212;-62
2024/03/09 08:32:12;;;;;;;19.90;14.48;;;4.60;99.90;;;;;;4978196;28;20202;-62
2024/03/09 08:34:39;;;;;;;22.77;16.98;;;4.70;99.90;;;;;;4973119;28;20653;-62
2024/03/09 08:37:08;;;;;;;14.68;12.55;;;4.80;99.90;;;;;;4980712;28;20201;-63
2024/03/09 08:39:36;;;;;;;17.00;12.70;;;4.80;99.90;;;;;;4969639;28;20267;-62
2024/03/09 08:42:05;;;;;;;14.68;12.70;;;5.00;99.90;;;;;;4976911;28;20244;-62
2024/03/09 08:44:33;;;;;;;20.00;11.82;;;5.10;99.90;;;;;;4964318;28;20233;-62
2024/03/09 08:47:02;;;;;;;15.77;13.65;;;5.20;99.90;;;;;;4972651;28;20229;-63
2024/03/09 08:49:29;;;;;;;17.75;12.25;;;5.30;99.90;;;;;;4972050;28;20297;-62
2024/03/09 08:51:55;;;;;;;17.05;12.55;;;5.40;99.90;;;;;;4972089;28;20209;-62
2024/03/09 08:54:23;;;;;;;15.65;11.13;;;5.40;99.90;;;;;;4972593;28;20631;-62
2024/03/09 08:56:54;;;;;;;15.20;11.93;;;5.50;99.90;;;;;;4973021;28;20205;-62
2024/03/09 08:59:21;;;;;;;15.65;12.50;;;5.60;99.90;;;;;;4973072;28;20216;-63
2024/03/09 09:01:48;;;;;;;16.73;13.65;;;5.70;99.90;;;;;;4978431;28;20208;-62
2024/03/09 09:04:15;;;;;;;15.35;11.93;;;5.80;99.90;;;;;;4974007;28;20228;-63
2024/03/09 09:06:42;;;;;;;14.80;11.82;;;5.90;99.90;;;;;;4980528;28;20714;-62
2024/03/09 09:09:16;;;;;;;13.75;12.00;;;6.00;99.90;;;;;;4975449;28;20207;-63
2024/03/09 09:11:43;;;;;;;13.75;12.00;;;6.10;99.90;;;;;;4977117;28;20231;-62
2024/03/09 09:14:11;;;;;;;14.52;11.30;;;6.20;99.90;;;;;;4972420;28;20315;-62
2024/03/09 09:16:40;;;;;;;17.38;12.20;;;6.30;99.90;;;;;;4982793;28;20201;-63
2024/03/09 09:19:07;;;;;;;17.05;11.48;;;6.40;99.90;;;;;;4973543;28;20304;-63
2024/03/09 09:21:34;;;;;;;16.15;11.45;;;6.40;99.90;;;;;;4973640;28;20212;-63
2024/03/09 09:24:02;;;;;;;18.55;12.15;;;6.60;99.90;;;;;;4976961;28;20320;-62
2024/03/09 09:26:29;;;;;;;15.45;11.65;;;6.90;99.90;;;;;;4975113;28;20311;-63
2024/03/09 09:28:56;;;;;;;13.45;10.43;;;7.20;99.90;;;;;;4978739;28;20217;-62
2024/03/09 09:31:25;;;;;;;13.90;12.05;;;7.50;99.90;;;;;;4974725;28;20212;-62
2024/03/09 09:33:52;;;;;;;13.82;11.77;;;7.70;99.90;;;;;;4968826;28;20234;-63
2024/03/09 09:36:19;;;;;;;12.88;11.55;;;7.90;99.90;;;;;;4965422;28;20197;-63
2024/03/09 09:38:46;;;;;;;10.40;9.43;;;8.10;99.90;;;;;;4988472;28;20627;-63
2024/03/09 09:41:14;;;;;;;11.60;10.00;;;8.30;99.90;;;;;;4986205;28;20830;-63
2024/03/09 09:43:41;;;;;;;13.75;12.30;;;8.50;99.90;;;;;;4975701;28;20861;-64
2024/03/09 09:46:08;;;;;;;15.20;11.77;;;8.60;99.90;;;;;;4979208;28;20327;-62
2024/03/09 09:48:37;;;;;;;12.10;10.90;;;8.80;99.90;;;;;;4973896;28;20463;-63
2024/03/09 09:51:06;;;;;;;15.03;12.03;;;9.00;99.90;;;;;;4973043;28;20448;-62
2024/03/09 09:53:33;;;;;;;12.70;10.03;;;9.20;99.90;;;;;;4973504;28;20862;-62
2024/03/09 09:56:00;;;;;;;12.60;11.30;;;9.30;99.90;;;;;;4990920;28;20444;-62
2024/03/09 09:58:27;;;;;;;12.80;11.47;;;9.30;99.90;;;;;;4977615;28;20456;-62
2024/03/09 10:00:54;;;;;;;11.57;10.50;;;9.30;99.90;;;;;;4978397;28;20440;-62
2024/03/09 10:03:21;;;;;;;12.97;11.50;;;9.40;99.90;;;;;;4976083;28;20475;-62
2024/03/09 10:05:49;;;;;;;14.80;11.20;;;9.30;99.90;;;;;;4971916;28;20489;-63
2024/03/09 10:08:16;;;;;;;14.13;11.93;;;9.30;99.90;;;;;;4972045;28;20456;-64
2024/03/09 10:10:47;;;;;;;12.45;11.00;;;9.30;99.90;;;;;;4970956;28;20744;-62
2024/03/09 10:13:16;;;;;;;15.73;13.13;;;9.40;99.90;;;;;;4972780;28;20373;-63
2024/03/09 10:15:44;;;;;;;12.03;10.80;;;9.60;99.90;;;;;;4985498;28;20447;-63
2024/03/09 10:18:12;;;;;;;12.80;11.17;;;9.90;99.90;;;;;;4988241;28;20443;-63
2024/03/09 10:20:40;;;;;;;13.77;11.43;;;10.10;99.90;;;;;;4970098;28;21183;-63
2024/03/09 10:23:12;;;;;;;11.40;10.27;;;10.30;99.90;;;;;;4970863;28;20457;-64
2024/03/09 10:25:39;;;;;;;13.37;10.73;;;10.50;99.70;;;;;;4969847;28;20461;-63
2024/03/09 10:28:08;;;;;;;12.17;10.73;;;10.70;99.50;;;;;;4970777;28;20448;-65
2024/03/09 10:30:37;;;;;;;13.10;10.13;;;10.70;98.60;;;;;;4970091;28;20808;-63
2024/03/09 10:33:09;;;;;;;13.20;10.50;;;10.70;99.40;;;;;;4971110;28;20455;-63
2024/03/09 10:35:40;;;;;;;12.83;11.50;;;10.70;99.60;;;;;;4970181;28;20511;-63
2024/03/09 10:38:09;;;;;;;11.97;10.40;;;10.70;99.00;;;;;;4970945;28;20457;-63
2024/03/09 10:40:36;;;;;;;14.63;12.40;;;10.70;99.30;;;;;;4968460;28;20543;-63
2024/03/09 10:43:03;;;;;;;12.00;10.80;;;10.70;98.80;;;;;;4971225;28;20451;-63
2024/03/09 10:45:33;;;;;;;14.43;11.80;;;10.60;98.80;;;;;;4970086;28;21002;-63
2024/03/09 10:48:05;;;;;;;11.97;10.77;;;10.60;98.90;;;;;;4970443;28;20480;-63
2024/03/09 10:50:36;;;;;;;14.80;11.50;;;10.70;99.70;;;;;;4969540;28;20504;-62
2024/03/09 10:53:23;;;;;;;13.07;11.77;;;10.80;99.20;;;;;;4971201;28;20454;-63
2024/03/09 10:55:55;;;;;;;13.03;11.03;;;11.00;99.00;;;;;;4970332;28;20456;-62
2024/03/09 10:58:25;;;;;;;13.67;11.10;;;11.30;98.90;;;;;;4970626;28;20532;-64
2024/03/09 11:00:53;;;;;;;15.17;13.60;;;11.50;98.80;;;;;;4969601;28;20457;-63
2024/03/09 11:03:21;;;;;;;13.87;12.30;;;11.70;98.00;;;;;;4970933;28;20527;-63
2024/03/09 11:05:48;;;;;;;11.60;10.47;;;11.80;97.80;;;;;;4968590;28;20490;-63
2024/03/09 11:08:17;;;;;;;13.73;11.67;;;12.00;97.70;;;;;;4973157;28;20898;-63
2024/03/09 11:10:46;;;;;;;10.97;9.97;;;12.10;96.80;;;;;;4973652;28;20494;-63
2024/03/09 11:13:15;;;;;;;12.87;10.90;;;12.30;97.00;;;;;;4974313;28;20487;-63
2024/03/09 11:15:41;;;;;;;13.47;12.10;;;12.40;96.60;;;;;;4974041;28;20551;-62
2024/03/09 11:18:09;;;;;;;11.47;10.03;;;12.40;96.20;;;;;;4974794;28;20448;-63
2024/03/09 11:20:47;;;;;;;12.60;10.37;;;12.50;96.20;;;;;;4972826;28;20475;-63
2024/03/09 11:23:14;;;;;;;13.63;10.53;;;12.70;96.30;;;;;;4962913;28;20579;-63
2024/03/09 11:25:51;;;;;;;10.87;9.90;;;12.70;95.60;;;;;;4973628;28;20452;-63
2024/03/09 11:28:22;;;;;;;11.87;10.73;;;12.70;95.30;;;;;;4974404;28;20539;-63
2024/03/09 11:31:11;;;;;;;14.30;10.90;;;12.80;95.90;;;;;;4961144;28;20524;-64
2024/03/09 11:33:42;;;;;;;11.87;10.67;;;12.90;96.10;;;;;;4971693;28;21555;-63
2024/03/09 11:36:40;;;;;;;14.03;10.70;;;13.00;96.70;;;;;;4973607;28;20839;-63
2024/03/09 11:39:07;;;;;;;14.10;12.60;;;13.10;96.10;;;;;;4967891;28;20543;-64
2024/03/09 11:41:38;;;;;;;13.70;12.33;;;13.20;95.80;;;;;;4973265;28;20531;-62
2024/03/09 11:44:05;;;;;;;13.83;11.93;;;13.20;95.10;;;;;;4973340;28;20494;-64
2024/03/09 11:46:34;;;;;;;12.10;11.00;;;13.30;96.10;;;;;;4973216;28;20492;-63
2024/03/09 11:49:03;;;;;;;12.33;11.10;;;13.40;95.10;;;;;;4962763;28;20460;-63
2024/03/09 11:51:33;;;;;;;12.90;10.70;;;13.40;95.20;;;;;;4972741;28;20460;-62
2024/03/09 11:54:02;;;;;;;12.23;11.03;;;13.50;94.20;;;;;;4973493;28;20546;-62
2024/03/09 11:56:31;;;;;;;12.27;11.07;;;13.70;94.60;;;;;;4972864;28;20946;-63
2024/03/09 11:59:01;;;;;;;11.90;10.70;;;13.80;95.20;;;;;;4973495;28;20475;-63
2024/03/09 12:01:28;;;;;;;13.07;11.60;;;14.00;93.90;;;;;;4972070;28;20468;-63
2024/03/09 12:03:59;;;;;;;11.17;9.87;;;14.20;93.90;;;;;;4973438;28;20535;-63
2024/03/09 12:06:27;;;;;;;11.87;10.63;;;14.40;94.30;;;;;;4972797;28;20575;-63
2024/03/09 12:08:55;;;;;;;12.20;11.00;;;14.50;92.90;;;;;;4973628;28;20452;-63
2024/03/09 12:11:23;;;;;;;13.40;11.50;;;14.60;92.20;;;;;;4972432;28;20456;-63
2024/03/09 12:13:50;;;;;;;12.67;11.37;;;14.70;92.60;;;;;;4973016;28;20483;-63
2024/03/09 12:16:19;;;;;;;12.27;11.07;;;14.80;94.00;;;;;;4965960;28;20457;-63
2024/03/09 12:18:48;;;;;;;12.67;11.43;;;15.00;92.90;;;;;;4967518;28;21038;-63
2024/03/09 12:21:18;;;;;;;14.60;11.53;;;15.30;93.40;;;;;;4967399;28;21062;-63
2024/03/09 12:23:48;;;;;;;11.57;10.30;;;15.50;92.30;;;;;;4974129;28;20475;-63
2024/03/09 12:26:15;;;;;;;12.20;10.77;;;15.70;90.90;;;;;;4968208;28;20989;-64
2024/03/09 12:28:46;;;;;;;11.93;10.77;;;15.80;90.20;;;;;;4973743;28;20877;-63
2024/03/09 12:31:14;;;;;;;15.37;13.63;;;16.00;91.90;;;;;;4969861;28;20480;-64
2024/03/09 12:33:44;;;;;;;12.80;11.17;;;16.30;91.80;;;;;;4971898;28;20472;-63
2024/03/09 12:36:11;;;;;;;11.67;10.47;;;16.60;91.80;;;;;;4971667;28;20531;-63
2024/03/09 12:38:38;;;;;;;12.40;11.17;;;17.10;89.40;;;;;;4971859;28;20459;-64
2024/03/09 12:41:09;;;;;;;12.70;11.30;;;17.40;89.00;;;;;;4970863;28;20461;-63
2024/03/09 12:43:38;;;;;;;12.60;11.47;;;17.80;90.10;;;;;;4972335;28;20476;-64